Airfield :
LOGIN :

Register | Disclaimer

   EN    FR    IT 

 










Legend :    VFR   Marginal VFR   IFR   Intensive IFR   Very Intensive IFR
Visi :
Ceiling :
>= 8 km
>= 3000ft
5 to 8 km
1000 to 3000 ft
1500m to 5 km
500 to 1000 ft
800 to 1500m
200 to 500 ft
< 800m
< 200 ft
Symbols :   Thunderstorms  Fog  Heavy snow  Heavy precipitations  Wind > 20 kt
SIGMETs :     Misc.  Thunderstorms  Icing  Turbulence  Mountain Waves  Volcanic Ashes






- Airport Elevation : 870 ft
- IATA code : ETZ


LFJL - Metz Nancy Lorraine

CURRENT METAR :
  • 260200Z AUTO 17008KT CAVOK 16/14 Q1011 NOSIG

EXPIRED METARs :
  • 260130Z AUTO 17008KT CAVOK 16/14 Q1011 NOSIG
  • 260100Z AUTO 17007KT CAVOK 16/14 Q1011 NOSIG
  • 260030Z AUTO 18007KT CAVOK 16/14 Q1011 NOSIG
  • 260000Z AUTO 18006KT CAVOK 16/14 Q1011 NOSIG
  • 252330Z AUTO 20006KT CAVOK 17/14 Q1011 NOSIG

TAF TAF LFJL
Valid from the 26 at 00:00 until the 27 at 00:00 UTC


252300Z 2600/2624 17005KT CAVOK
PROB30
TEMPO 2605/2608 BKN007
BECMG 2608/2610 23010KT
TEMPO 2610/2621 -SHRA FEW025TCU
TEMPO 2610/2619 3000 SHRA SCT025CB
PROB40
TEMPO 2611/2618 VRB15G25KT TSRA
BECMG 2621/2624 17005KT CAVOK



MET'MAP, your aeronautical weather chart ! - Copyright ORBIFLY December 2007 - Disclaimer

ORBIFLY MET'MAP TEAM :

Programming & Development : Alexandra Zaïnal
Concept & original design : Baudouin d'Aumeries
Assistance for programming : Marc-Olivier Méhu
Technical & hardware support : Manuel Goepfert

Contact : metmap@orbifly.com




SOURCES & CREDITS :

   NOAA